createdAt,value
2023-05-23T00:02:17.045Z,16.51
2023-05-23T00:04:45.151Z,16.57
2023-05-23T00:07:12.920Z,16.50
2023-05-23T00:09:40.675Z,16.49
2023-05-23T00:12:09.034Z,16.42
2023-05-23T00:14:40.173Z,16.45
2023-05-23T00:17:10.596Z,16.14
2023-05-23T00:19:38.688Z,16.23
2023-05-23T00:22:06.573Z,16.25
2023-05-23T00:24:34.497Z,16.38
2023-05-23T00:27:02.277Z,16.20
2023-05-23T00:29:30.434Z,16.06
2023-05-23T00:31:59.467Z,16.27
2023-05-23T00:34:27.179Z,16.26
2023-05-23T00:36:54.963Z,16.31
2023-05-23T00:39:22.643Z,16.28
2023-05-23T00:41:52.999Z,16.28
2023-05-23T00:44:22.003Z,16.28
2023-05-23T00:46:53.652Z,16.28
2023-05-23T00:49:23.525Z,16.13
2023-05-23T00:51:52.777Z,16.07
2023-05-23T00:54:27.200Z,16.05
2023-05-23T00:56:56.131Z,16.36
2023-05-23T00:59:25.559Z,16.21
2023-05-23T01:01:55.475Z,16.13
2023-05-23T01:04:27.026Z,16.17
2023-05-23T01:06:55.730Z,16.11
2023-05-23T01:09:26.292Z,16.06
2023-05-23T01:12:17.193Z,16.10
2023-05-23T01:14:50.889Z,16.13
2023-05-23T01:17:24.910Z,16.18
2023-05-23T01:20:01.107Z,16.14
2023-05-23T01:22:42.788Z,16.40
2023-05-23T01:25:18.637Z,16.16
2023-05-23T01:27:54.030Z,16.23
2023-05-23T01:30:22.435Z,16.15
2023-05-23T01:32:54.059Z,16.15
2023-05-23T01:35:27.240Z,16.07
2023-05-23T01:37:55.950Z,16.03
2023-05-23T01:40:25.993Z,16.10
2023-05-23T01:42:57.331Z,16.05
2023-05-23T01:45:27.709Z,16.06
2023-05-23T01:47:56.928Z,16.11
2023-05-23T01:50:25.960Z,16.07
2023-05-23T01:52:56.009Z,16.14
2023-05-23T01:55:26.623Z,16.03
2023-05-23T01:57:57.710Z,15.92
2023-05-23T02:00:26.102Z,15.90
2023-05-23T02:02:54.153Z,16.29
2023-05-23T02:05:22.250Z,16.09
2023-05-23T02:07:50.411Z,16.19
2023-05-23T02:10:18.850Z,16.08
2023-05-23T02:12:46.769Z,15.96
2023-05-23T02:15:17.390Z,16.11
2023-05-23T02:17:45.461Z,16.20
2023-05-23T02:20:14.503Z,16.31
2023-05-23T02:22:42.332Z,16.08
2023-05-23T02:25:10.805Z,16.26
2023-05-23T02:27:40.599Z,16.30
2023-05-23T02:30:09.479Z,16.33
2023-05-23T02:32:38.642Z,16.12
2023-05-23T02:35:07.555Z,15.95
2023-05-23T02:37:35.827Z,15.95
2023-05-23T02:40:07.650Z,15.93
2023-05-23T02:42:37.314Z,15.97
2023-05-23T02:45:05.773Z,15.93
2023-05-23T02:47:33.572Z,15.97
2023-05-23T02:50:02.693Z,16.11
2023-05-23T02:52:31.892Z,16.03
2023-05-23T02:54:59.708Z,15.87
2023-05-23T02:57:28.044Z,15.84
2023-05-23T02:59:58.487Z,15.83
2023-05-23T03:02:26.952Z,15.72
2023-05-23T03:04:56.142Z,15.95
2023-05-23T03:07:28.683Z,15.83
2023-05-23T03:09:57.278Z,16.03
2023-05-23T03:12:25.238Z,16.09
2023-05-23T03:14:54.510Z,15.85
2023-05-23T03:17:22.750Z,15.94
2023-05-23T03:19:51.270Z,15.95
2023-05-23T03:22:20.303Z,15.84
2023-05-23T03:24:49.982Z,16.06
2023-05-23T03:27:17.851Z,15.95
2023-05-23T03:29:48.186Z,15.83
2023-05-23T03:32:16.749Z,15.76
2023-05-23T03:34:44.692Z,15.78
2023-05-23T03:37:13.069Z,15.90
2023-05-23T03:39:41.016Z,15.97
2023-05-23T03:42:10.485Z,15.94
2023-05-23T03:44:38.352Z,15.90
2023-05-23T03:47:08.251Z,15.96
2023-05-23T03:49:38.876Z,15.72
2023-05-23T03:52:06.886Z,15.89
2023-05-23T03:54:35.555Z,15.77
2023-05-23T03:57:04.148Z,15.59
2023-05-23T03:59:33.505Z,15.69
2023-05-23T04:02:01.910Z,15.58
2023-05-23T04:04:31.137Z,15.79
2023-05-23T04:07:01.711Z,15.79
2023-05-23T04:09:30.125Z,15.49
2023-05-23T04:11:58.947Z,15.51
2023-05-23T04:14:27.775Z,15.52
2023-05-23T04:16:58.205Z,15.81
2023-05-23T04:19:26.223Z,15.66
2023-05-23T04:21:54.877Z,15.57
2023-05-23T04:24:22.964Z,15.56
2023-05-23T04:26:50.787Z,15.62
2023-05-23T04:29:18.706Z,15.57
2023-05-23T04:31:46.898Z,15.46
2023-05-23T04:34:17.336Z,15.54
2023-05-23T04:36:45.620Z,15.60
2023-05-23T04:39:14.117Z,15.56
2023-05-23T04:41:51.331Z,15.65
2023-05-23T04:44:26.682Z,15.58
2023-05-23T04:47:11.792Z,15.61
2023-05-23T04:49:55.116Z,15.66
2023-05-23T04:52:22.827Z,15.62
2023-05-23T04:54:51.173Z,15.97
2023-05-23T04:57:19.150Z,15.92
2023-05-23T04:59:46.865Z,15.77
2023-05-23T05:02:15.358Z,15.73
2023-05-23T05:04:43.222Z,15.52
2023-05-23T05:07:12.997Z,15.57
2023-05-23T05:09:41.705Z,15.43
2023-05-23T05:12:12.245Z,15.38
2023-05-23T05:14:41.051Z,15.36
2023-05-23T05:17:08.972Z,15.56
2023-05-23T05:19:45.571Z,15.49
2023-05-23T05:22:15.278Z,15.48
2023-05-23T05:24:43.549Z,15.51
2023-05-23T05:27:12.023Z,15.57
2023-05-23T05:29:39.787Z,15.60
2023-05-23T05:32:08.901Z,15.49
2023-05-23T05:34:37.867Z,15.31
2023-05-23T05:37:06.191Z,15.45
2023-05-23T05:39:35.668Z,15.42
2023-05-23T05:42:04.367Z,15.48
2023-05-23T05:44:33.038Z,15.40
2023-05-23T05:47:00.714Z,15.32
2023-05-23T05:49:29.414Z,15.32
2023-05-23T05:51:57.876Z,15.50
2023-05-23T05:54:25.663Z,15.60
2023-05-23T05:56:56.205Z,15.47
2023-05-23T05:59:23.968Z,15.25
2023-05-23T06:01:52.918Z,15.47
2023-05-23T06:04:20.926Z,15.38
2023-05-23T06:06:50.179Z,15.54
2023-05-23T06:09:18.182Z,15.47
2023-05-23T06:11:46.848Z,15.38
2023-05-23T06:14:16.156Z,15.52
2023-05-23T06:16:46.911Z,15.28
2023-05-23T06:19:14.957Z,15.34
2023-05-23T06:21:42.994Z,15.46
2023-05-23T06:24:12.427Z,15.24
2023-05-23T06:26:40.249Z,15.26
2023-05-23T06:29:09.587Z,15.37
2023-05-23T06:31:38.991Z,15.27
2023-05-23T06:34:06.851Z,15.30
2023-05-23T06:36:35.016Z,15.36
2023-05-23T06:39:02.782Z,15.36
2023-05-23T06:41:31.771Z,15.25
2023-05-23T06:43:59.729Z,15.26
2023-05-23T06:46:31.191Z,15.34
2023-05-23T06:49:13.759Z,15.31
2023-05-23T06:51:43.000Z,15.27
2023-05-23T06:54:11.181Z,15.27
2023-05-23T06:56:39.247Z,15.42
2023-05-23T06:59:07.683Z,15.35
2023-05-23T07:01:37.113Z,15.45
2023-05-23T07:04:07.049Z,15.43
2023-05-23T07:06:36.813Z,15.33
2023-05-23T07:09:06.059Z,15.42
2023-05-23T07:11:35.304Z,15.29
2023-05-23T07:14:03.677Z,15.45
2023-05-23T07:16:41.486Z,15.42
2023-05-23T07:19:11.114Z,15.38
2023-05-23T07:21:45.221Z,15.34
2023-05-23T07:24:15.392Z,15.27
2023-05-23T07:26:43.637Z,15.20
2023-05-23T07:29:11.552Z,15.01
2023-05-23T07:31:39.753Z,15.19
2023-05-23T07:34:08.890Z,15.18
2023-05-23T07:36:47.575Z,15.51
2023-05-23T07:39:21.983Z,15.27
2023-05-23T07:41:51.510Z,15.05
2023-05-23T07:44:23.206Z,15.01
2023-05-23T07:46:53.109Z,15.20
2023-05-23T07:49:21.990Z,15.09
2023-05-23T07:51:51.403Z,15.21
2023-05-23T07:54:19.211Z,15.28
2023-05-23T07:56:47.255Z,15.01
2023-05-23T07:59:15.559Z,14.80
2023-05-23T08:01:44.822Z,14.75
2023-05-23T08:04:17.246Z,14.64
2023-05-23T08:07:04.822Z,14.68
2023-05-23T08:09:53.313Z,14.56
2023-05-23T08:12:22.156Z,14.57
2023-05-23T08:14:56.041Z,14.42
2023-05-23T08:17:26.893Z,14.19
2023-05-23T08:19:54.806Z,14.22
2023-05-23T08:22:24.056Z,14.22
2023-05-23T08:24:52.148Z,14.20
2023-05-23T08:27:20.525Z,14.19
2023-05-23T08:29:52.768Z,14.17
2023-05-23T08:32:21.051Z,14.07
2023-05-23T08:34:49.468Z,14.12
2023-05-23T08:37:17.421Z,13.99
2023-05-23T08:39:46.912Z,13.95
2023-05-23T08:42:33.431Z,14.17
2023-05-23T08:45:01.743Z,14.14
2023-05-23T08:47:33.066Z,14.29
2023-05-23T08:50:05.102Z,14.11
2023-05-23T08:52:36.335Z,14.02
2023-05-23T08:55:06.631Z,14.04
2023-05-23T08:57:37.003Z,13.95
2023-05-23T09:00:21.437Z,14.09
2023-05-23T09:02:49.559Z,14.04
2023-05-23T09:05:33.819Z,13.71
2023-05-23T09:08:01.870Z,13.72
2023-05-23T09:10:31.587Z,13.71
2023-05-23T09:13:01.415Z,13.93
2023-05-23T09:15:31.736Z,13.77
2023-05-23T09:18:03.282Z,13.70
2023-05-23T09:20:32.770Z,13.85
2023-05-23T09:23:07.089Z,13.91
2023-05-23T09:25:40.917Z,14.08
2023-05-23T09:28:10.358Z,14.05
2023-05-23T09:30:40.695Z,13.79
2023-05-23T09:33:08.976Z,13.81
2023-05-23T09:35:37.056Z,13.79
2023-05-23T09:38:04.831Z,13.90
2023-05-23T09:40:33.576Z,13.85
2023-05-23T09:43:07.518Z,13.75
2023-05-23T09:45:36.117Z,13.74
2023-05-23T09:48:04.131Z,13.87
2023-05-23T09:50:34.385Z,13.88
2023-05-23T09:53:04.663Z,13.82
2023-05-23T09:55:32.386Z,13.61
2023-05-23T09:58:01.851Z,13.53
2023-05-23T10:00:33.124Z,13.68
2023-05-23T10:03:12.421Z,13.62
2023-05-23T10:05:45.544Z,13.62
2023-05-23T10:08:16.006Z,13.85
2023-05-23T10:11:38.046Z,13.58
2023-05-23T10:14:08.461Z,13.89
2023-05-23T10:16:45.521Z,13.87
2023-05-23T10:19:21.616Z,14.02
2023-05-23T10:21:51.964Z,14.02
2023-05-23T10:24:20.831Z,13.99
2023-05-23T10:26:49.703Z,14.16
2023-05-23T10:29:17.445Z,14.43
2023-05-23T10:31:47.607Z,14.66
2023-05-23T10:34:22.689Z,14.59
2023-05-23T10:36:58.139Z,14.57
2023-05-23T10:39:54.339Z,14.58
2023-05-23T10:42:36.275Z,14.68
2023-05-23T10:45:16.077Z,15.02
2023-05-23T10:47:45.636Z,14.85
2023-05-23T10:50:14.900Z,15.01
2023-05-23T10:52:43.348Z,14.68
2023-05-23T10:55:17.596Z,14.76
2023-05-23T10:57:45.790Z,15.01
2023-05-23T11:00:16.546Z,14.87
2023-05-23T11:02:55.687Z,14.94
2023-05-23T11:05:27.977Z,14.88
2023-05-23T11:08:09.289Z,14.97
2023-05-23T11:11:01.568Z,14.80
2023-05-23T11:14:05.106Z,15.00
2023-05-23T11:16:41.095Z,14.66
2023-05-23T11:19:28.227Z,14.75
2023-05-23T11:22:00.787Z,14.92
2023-05-23T11:24:51.979Z,14.92
2023-05-23T11:27:27.234Z,14.99
2023-05-23T11:30:08.270Z,15.07
2023-05-23T11:32:37.203Z,15.10
2023-05-23T11:35:08.383Z,15.10
2023-05-23T11:37:37.112Z,14.83
2023-05-23T11:40:26.984Z,14.76
2023-05-23T11:42:54.920Z,14.72
2023-05-23T11:45:23.454Z,14.68
2023-05-23T11:47:51.407Z,14.78
2023-05-23T11:50:21.576Z,15.03
2023-05-23T11:52:52.036Z,15.01
2023-05-23T11:55:21.051Z,15.27
2023-05-23T11:57:49.543Z,15.36
2023-05-23T12:00:18.906Z,15.37
2023-05-23T12:02:48.244Z,15.57
2023-05-23T12:05:16.451Z,15.68
2023-05-23T12:07:47.139Z,15.52
2023-05-23T12:10:16.702Z,15.73
2023-05-23T12:12:47.776Z,15.62
2023-05-23T12:15:16.239Z,15.65
2023-05-23T12:17:46.082Z,15.39
2023-05-23T12:20:14.444Z,15.60
2023-05-23T12:22:43.188Z,15.67
2023-05-23T12:25:13.253Z,15.61
2023-05-23T12:27:44.023Z,15.50
2023-05-23T12:30:14.918Z,15.62
2023-05-23T12:32:44.326Z,16.08
2023-05-23T12:35:14.253Z,15.91
2023-05-23T12:37:43.038Z,16.01
2023-05-23T12:40:14.295Z,16.24
2023-05-23T12:42:48.182Z,16.28
2023-05-23T12:45:16.241Z,16.55
2023-05-23T12:47:44.132Z,16.46
2023-05-23T12:50:13.417Z,16.63
2023-05-23T12:52:41.642Z,16.66
2023-05-23T12:55:10.835Z,16.58
2023-05-23T12:57:40.079Z,16.45
2023-05-23T13:00:09.357Z,16.39
2023-05-23T13:02:37.506Z,16.65
2023-05-23T13:05:05.826Z,16.76
2023-05-23T13:07:33.904Z,16.77
2023-05-23T13:10:02.804Z,16.99
2023-05-23T13:12:30.975Z,16.72
2023-05-23T13:15:00.273Z,16.81
2023-05-23T13:17:28.138Z,16.72
2023-05-23T13:19:56.420Z,16.67
2023-05-23T13:22:24.158Z,16.47
2023-05-23T13:24:52.316Z,16.36
2023-05-23T13:27:20.241Z,16.60
2023-05-23T13:29:48.153Z,16.40
2023-05-23T13:32:17.487Z,16.39
2023-05-23T13:34:45.352Z,16.25
2023-05-23T13:37:13.051Z,16.24
2023-05-23T13:39:40.989Z,16.26
2023-05-23T13:42:09.385Z,16.53
2023-05-23T13:44:37.556Z,16.49
2023-05-23T13:47:13.390Z,16.48
2023-05-23T13:49:43.372Z,16.62
2023-05-23T13:52:11.725Z,16.61
2023-05-23T13:54:39.622Z,16.66
2023-05-23T13:57:07.769Z,16.45
2023-05-23T13:59:35.883Z,16.59
2023-05-23T14:02:03.764Z,16.84
2023-05-23T14:04:31.552Z,16.81
2023-05-23T14:07:00.842Z,16.86
2023-05-23T14:09:28.693Z,16.53
2023-05-23T14:11:56.712Z,16.62
2023-05-23T14:14:24.745Z,16.59
2023-05-23T14:16:52.799Z,16.75
2023-05-23T14:19:21.718Z,16.89
2023-05-23T14:21:49.587Z,17.03
2023-05-23T14:24:19.192Z,16.88
2023-05-23T14:26:47.423Z,16.70
2023-05-23T14:29:15.182Z,16.93
2023-05-23T14:31:43.019Z,16.71
2023-05-23T14:34:11.344Z,16.77
2023-05-23T14:36:39.196Z,16.67
2023-05-23T14:39:10.470Z,16.81
2023-05-23T14:41:40.701Z,16.62
2023-05-23T14:44:08.701Z,16.74
2023-05-23T14:46:36.510Z,16.66
2023-05-23T14:49:04.323Z,16.47
2023-05-23T14:51:46.263Z,16.56
2023-05-23T14:54:16.993Z,16.54
2023-05-23T14:56:46.439Z,16.82
2023-05-23T14:59:15.192Z,16.48
2023-05-23T15:01:43.075Z,16.52
2023-05-23T15:04:13.990Z,16.59
2023-05-23T15:06:42.877Z,16.34
2023-05-23T15:09:10.719Z,16.47
2023-05-23T15:11:40.356Z,16.42
2023-05-23T15:14:09.616Z,16.53
2023-05-23T15:16:37.482Z,16.35
2023-05-23T15:19:06.022Z,16.49
2023-05-23T15:21:34.024Z,16.46
2023-05-23T15:24:01.962Z,16.54
2023-05-23T15:26:30.326Z,16.31
2023-05-23T15:28:58.608Z,16.64
2023-05-23T15:31:28.160Z,16.50
2023-05-23T15:33:55.943Z,16.65
2023-05-23T15:36:23.795Z,16.59
2023-05-23T15:38:51.801Z,16.60
2023-05-23T15:41:20.144Z,16.38
2023-05-23T15:43:47.868Z,16.27
2023-05-23T15:46:16.284Z,16.09
2023-05-23T15:48:45.623Z,16.39
2023-05-23T15:51:14.061Z,16.33
2023-05-23T15:54:00.120Z,16.37
2023-05-23T15:56:29.060Z,16.16
2023-05-23T15:58:56.967Z,16.07
2023-05-23T16:01:24.762Z,16.09
2023-05-23T16:03:54.000Z,16.09
2023-05-23T16:06:21.847Z,16.15
2023-05-23T16:08:49.678Z,16.37
2023-05-23T16:11:17.610Z,16.18
2023-05-23T16:13:45.387Z,16.40
2023-05-23T16:16:13.268Z,16.38
2023-05-23T16:18:41.223Z,16.47
2023-05-23T16:21:10.525Z,16.40
2023-05-23T16:23:38.333Z,16.34
2023-05-23T16:26:06.149Z,16.59
2023-05-23T16:28:34.082Z,16.39
2023-05-23T16:31:01.960Z,16.51
2023-05-23T16:33:30.275Z,16.40
2023-05-23T16:35:58.040Z,16.45
2023-05-23T16:38:27.229Z,16.58
2023-05-23T16:40:55.240Z,16.37
2023-05-23T16:43:23.603Z,16.34
2023-05-23T16:45:51.630Z,16.33
2023-05-23T16:48:20.543Z,16.05
2023-05-23T16:50:48.833Z,15.91
2023-05-23T16:53:16.684Z,16.03
2023-05-23T16:55:46.292Z,16.31
2023-05-23T16:58:14.049Z,16.11
2023-05-23T17:00:41.800Z,15.92
2023-05-23T17:03:10.357Z,15.88
2023-05-23T17:05:39.111Z,16.03
2023-05-23T17:08:07.209Z,16.17
2023-05-23T17:10:36.151Z,15.84
2023-05-23T17:13:05.893Z,15.61
2023-05-23T17:15:33.795Z,15.55
2023-05-23T17:18:01.731Z,15.69
2023-05-23T17:20:29.598Z,15.58
2023-05-23T17:22:58.090Z,15.74
2023-05-23T17:25:25.937Z,15.84
2023-05-23T17:27:53.675Z,15.61
2023-05-23T17:30:22.754Z,15.52
2023-05-23T17:32:50.557Z,15.50
2023-05-23T17:35:18.727Z,15.42
2023-05-23T17:37:49.034Z,15.27
2023-05-23T17:40:17.026Z,15.48
2023-05-23T17:42:44.824Z,15.75
2023-05-23T17:45:12.981Z,15.54
2023-05-23T17:47:42.408Z,15.50
2023-05-23T17:50:11.500Z,15.48
2023-05-23T17:52:39.312Z,15.59
2023-05-23T17:55:09.195Z,15.72
2023-05-23T17:57:36.933Z,15.59
2023-05-23T18:00:05.942Z,15.36
2023-05-23T18:02:40.497Z,15.83
2023-05-23T18:05:11.110Z,15.55
2023-05-23T18:07:39.138Z,15.46
2023-05-23T18:10:08.367Z,15.44
2023-05-23T18:12:36.300Z,15.38
2023-05-23T18:15:04.345Z,15.51
2023-05-23T18:17:32.227Z,15.66
2023-05-23T18:20:00.204Z,15.26
2023-05-23T18:22:31.629Z,15.40
2023-05-23T18:24:59.402Z,15.34
2023-05-23T18:27:27.191Z,15.24
2023-05-23T18:29:55.017Z,15.12
2023-05-23T18:32:22.952Z,15.19
2023-05-23T18:34:50.797Z,15.17
2023-05-23T18:37:18.760Z,15.02
2023-05-23T18:39:48.461Z,15.16
2023-05-23T18:42:16.394Z,15.12
2023-05-23T18:44:44.172Z,14.93
2023-05-23T18:47:12.653Z,14.91
2023-05-23T18:49:41.458Z,14.94
2023-05-23T18:52:09.428Z,14.94
2023-05-23T18:54:37.548Z,14.90
2023-05-23T18:57:07.001Z,14.65
2023-05-23T18:59:34.965Z,15.00
2023-05-23T19:02:02.734Z,14.78
2023-05-23T19:04:30.449Z,14.64
2023-05-23T19:06:58.262Z,14.87
2023-05-23T19:09:25.995Z,14.52
2023-05-23T19:11:53.767Z,14.60
2023-05-23T19:14:22.938Z,14.67
2023-05-23T19:16:51.499Z,14.47
2023-05-23T19:19:19.416Z,14.42
2023-05-23T19:21:47.934Z,14.47
2023-05-23T19:24:15.768Z,14.37
2023-05-23T19:26:43.758Z,14.18
2023-05-23T19:29:11.977Z,14.37
2023-05-23T19:31:41.540Z,14.19
2023-05-23T19:34:09.341Z,14.05
2023-05-23T19:36:37.204Z,14.18
2023-05-23T19:39:05.664Z,14.16
2023-05-23T19:41:33.610Z,14.03
2023-05-23T19:44:02.683Z,14.21
2023-05-23T19:46:31.031Z,13.99
2023-05-23T19:49:00.967Z,13.85
2023-05-23T19:51:29.027Z,13.67
2023-05-23T19:53:56.783Z,13.74
2023-05-23T19:56:25.898Z,13.67
2023-05-23T19:58:53.784Z,13.70
2023-05-23T20:01:22.171Z,13.73
2023-05-23T20:03:50.228Z,13.76
2023-05-23T20:06:20.721Z,13.62
2023-05-23T20:08:48.929Z,13.55
2023-05-23T20:11:17.000Z,13.32
2023-05-23T20:13:44.741Z,13.47
2023-05-23T20:16:13.042Z,13.38
2023-05-23T20:18:43.595Z,13.56
2023-05-23T20:21:11.497Z,13.53
2023-05-23T20:23:43.424Z,13.16
2023-05-23T20:26:11.197Z,13.32
2023-05-23T20:28:38.994Z,13.25
2023-05-23T20:31:06.951Z,13.22
2023-05-23T20:33:35.506Z,12.99
2023-05-23T20:36:03.829Z,12.92
2023-05-23T20:38:34.179Z,12.94
2023-05-23T20:41:07.421Z,12.97
2023-05-23T20:43:37.297Z,12.98
2023-05-23T20:46:06.569Z,12.89
2023-05-23T20:48:34.894Z,12.96
2023-05-23T20:51:03.656Z,12.91
2023-05-23T20:53:31.534Z,12.85
2023-05-23T20:55:59.232Z,13.01
2023-05-23T20:58:28.552Z,12.78
2023-05-23T21:00:58.166Z,12.69
2023-05-23T21:03:26.042Z,12.87
2023-05-23T21:05:54.159Z,12.70
2023-05-23T21:08:22.559Z,12.51
2023-05-23T21:10:53.246Z,12.57
2023-05-23T21:13:22.366Z,12.50
2023-05-23T21:15:51.605Z,12.44
2023-05-23T21:18:19.413Z,12.50
2023-05-23T21:20:47.165Z,12.47
2023-05-23T21:23:15.894Z,12.21
2023-05-23T21:25:43.766Z,12.44
2023-05-23T21:28:11.566Z,12.21
2023-05-23T21:30:40.346Z,12.05
2023-05-23T21:33:09.765Z,12.07
2023-05-23T21:35:37.838Z,12.18
2023-05-23T21:38:05.598Z,11.92
2023-05-23T21:40:33.289Z,11.90
2023-05-23T21:43:01.003Z,11.94
2023-05-23T21:45:29.068Z,11.92
2023-05-23T21:47:57.131Z,11.88
2023-05-23T21:50:26.381Z,11.91
2023-05-23T21:52:54.080Z,11.85
2023-05-23T21:55:22.019Z,11.77
2023-05-23T21:57:49.896Z,11.78
2023-05-23T22:00:19.611Z,11.90
2023-05-23T22:02:48.319Z,11.58
2023-05-23T22:05:16.172Z,11.67
2023-05-23T22:07:45.847Z,11.81
2023-05-23T22:10:14.540Z,11.55
2023-05-23T22:12:42.341Z,11.52
2023-05-23T22:15:11.149Z,11.50
2023-05-23T22:17:43.277Z,11.49
2023-05-23T22:20:14.352Z,11.48
2023-05-23T22:22:42.164Z,11.58
2023-05-23T22:25:11.627Z,11.70
2023-05-23T22:27:39.357Z,11.67
2023-05-23T22:30:09.298Z,11.45
2023-05-23T22:32:37.173Z,11.53
2023-05-23T22:35:05.548Z,11.52
2023-05-23T22:37:33.508Z,11.40
2023-05-23T22:40:01.227Z,11.26
2023-05-23T22:42:30.868Z,11.34
2023-05-23T22:44:58.764Z,11.26
2023-05-23T22:47:29.276Z,11.04
2023-05-23T22:49:59.203Z,11.04
2023-05-23T22:52:27.656Z,11.20
2023-05-23T22:54:55.536Z,10.90
2023-05-23T22:57:23.931Z,10.94
2023-05-23T22:59:53.462Z,11.02
2023-05-23T23:02:21.435Z,10.94
2023-05-23T23:04:49.498Z,11.04
2023-05-23T23:07:17.270Z,10.91
2023-05-23T23:09:45.273Z,11.07
2023-05-23T23:12:13.155Z,11.04
2023-05-23T23:14:40.981Z,10.89
2023-05-23T23:17:10.529Z,10.80
2023-05-23T23:19:40.284Z,10.77
2023-05-23T23:22:08.585Z,10.82
2023-05-23T23:24:36.444Z,10.81
2023-05-23T23:27:04.539Z,10.67
2023-05-23T23:29:32.458Z,10.57
2023-05-23T23:32:00.817Z,10.41
2023-05-23T23:34:30.070Z,10.32
2023-05-23T23:36:58.067Z,10.20
2023-05-23T23:39:25.872Z,10.27
2023-05-23T23:41:53.761Z,10.23
2023-05-23T23:44:22.054Z,10.17
2023-05-23T23:46:49.993Z,10.05
2023-05-23T23:49:17.849Z,10.09
2023-05-23T23:51:47.220Z,9.99
2023-05-23T23:54:15.018Z,9.98
2023-05-23T23:56:42.788Z,9.98
2023-05-23T23:59:10.646Z,9.86
